sensor_id;sensor_type;location;lat;lon;timestamp;temperature;humidity
55828;DHT22;41758;51.992;5.890;2023-05-10T00:00:00;18.10;74.60
55828;DHT22;41758;51.992;5.890;2023-05-10T00:02:26;18.10;74.70
55828;DHT22;41758;51.992;5.890;2023-05-10T00:04:52;18.10;74.70
55828;DHT22;41758;51.992;5.890;2023-05-10T00:07:18;18.10;74.80
55828;DHT22;41758;51.992;5.890;2023-05-10T00:09:44;18.20;74.70
55828;DHT22;41758;51.992;5.890;2023-05-10T00:12:09;18.10;74.70
55828;DHT22;41758;51.992;5.890;2023-05-10T00:14:35;18.20;74.80
55828;DHT22;41758;51.992;5.890;2023-05-10T00:17:01;18.20;74.70
55828;DHT22;41758;51.992;5.890;2023-05-10T00:19:26;18.20;74.60
55828;DHT22;41758;51.992;5.890;2023-05-10T00:21:52;18.20;74.50
55828;DHT22;41758;51.992;5.890;2023-05-10T00:24:18;18.10;74.50
55828;DHT22;41758;51.992;5.890;2023-05-10T00:26:44;18.10;74.60
55828;DHT22;41758;51.992;5.890;2023-05-10T00:29:10;18.10;74.60
55828;DHT22;41758;51.992;5.890;2023-05-10T00:31:36;18.10;74.60
55828;DHT22;41758;51.992;5.890;2023-05-10T00:34:02;18.10;74.70
55828;DHT22;41758;51.992;5.890;2023-05-10T00:36:27;18.10;74.70
55828;DHT22;41758;51.992;5.890;2023-05-10T00:38:53;18.10;74.80
55828;DHT22;41758;51.992;5.890;2023-05-10T00:41:18;18.20;74.80
55828;DHT22;41758;51.992;5.890;2023-05-10T00:43:46;18.10;74.60
55828;DHT22;41758;51.992;5.890;2023-05-10T00:46:12;18.10;74.70
55828;DHT22;41758;51.992;5.890;2023-05-10T00:48:39;18.10;74.70
55828;DHT22;41758;51.992;5.890;2023-05-10T00:51:05;18.20;74.80
55828;DHT22;41758;51.992;5.890;2023-05-10T00:53:32;18.10;74.70
55828;DHT22;41758;51.992;5.890;2023-05-10T00:55:58;18.20;74.60
55828;DHT22;41758;51.992;5.890;2023-05-10T00:58:25;18.10;74.50
55828;DHT22;41758;51.992;5.890;2023-05-10T01:00:55;18.10;74.60
55828;DHT22;41758;51.992;5.890;2023-05-10T01:03:22;18.20;74.70
55828;DHT22;41758;51.992;5.890;2023-05-10T01:05:48;18.20;74.70
55828;DHT22;41758;51.992;5.890;2023-05-10T01:08:14;18.20;74.70
55828;DHT22;41758;51.992;5.890;2023-05-10T01:10:41;18.20;74.60
55828;DHT22;41758;51.992;5.890;2023-05-10T01:13:07;18.20;74.70
55828;DHT22;41758;51.992;5.890;2023-05-10T01:15:33;18.10;74.60
55828;DHT22;41758;51.992;5.890;2023-05-10T01:17:59;18.20;74.70
55828;DHT22;41758;51.992;5.890;2023-05-10T01:20:30;18.20;74.70
55828;DHT22;41758;51.992;5.890;2023-05-10T01:23:18;18.20;74.70
55828;DHT22;41758;51.992;5.890;2023-05-10T01:26:07;18.20;74.70
55828;DHT22;41758;51.992;5.890;2023-05-10T01:29:11;18.20;74.60
55828;DHT22;41758;51.992;5.890;2023-05-10T01:34:38;18.20;74.80
55828;DHT22;41758;51.992;5.890;2023-05-10T01:37:09;18.20;74.90
55828;DHT22;41758;51.992;5.890;2023-05-10T01:39:58;18.30;74.90
55828;DHT22;41758;51.992;5.890;2023-05-10T01:42:28;18.20;74.70
55828;DHT22;41758;51.992;5.890;2023-05-10T01:47:38;18.20;74.70
55828;DHT22;41758;51.992;5.890;2023-05-10T01:50:16;18.20;74.70
55828;DHT22;41758;51.992;5.890;2023-05-10T01:52:47;18.10;74.70
55828;DHT22;41758;51.992;5.890;2023-05-10T01:55:16;18.20;74.70
55828;DHT22;41758;51.992;5.890;2023-05-10T01:57:44;18.10;74.80
55828;DHT22;41758;51.992;5.890;2023-05-10T02:00:13;18.20;74.80
55828;DHT22;41758;51.992;5.890;2023-05-10T02:02:44;18.20;74.80
55828;DHT22;41758;51.992;5.890;2023-05-10T02:05:12;18.20;74.80
55828;DHT22;41758;51.992;5.890;2023-05-10T02:07:39;18.10;74.90
55828;DHT22;41758;51.992;5.890;2023-05-10T02:10:07;18.20;74.90
55828;DHT22;41758;51.992;5.890;2023-05-10T02:12:41;18.20;74.80
55828;DHT22;41758;51.992;5.890;2023-05-10T02:15:07;18.20;74.80
55828;DHT22;41758;51.992;5.890;2023-05-10T02:17:35;18.20;74.80
55828;DHT22;41758;51.992;5.890;2023-05-10T02:20:03;18.20;74.70
55828;DHT22;41758;51.992;5.890;2023-05-10T02:22:31;18.20;74.60
55828;DHT22;41758;51.992;5.890;2023-05-10T02:24:58;18.20;74.70
55828;DHT22;41758;51.992;5.890;2023-05-10T02:27:26;18.20;74.80
55828;DHT22;41758;51.992;5.890;2023-05-10T02:29:53;18.20;74.80
55828;DHT22;41758;51.992;5.890;2023-05-10T02:32:22;18.30;74.80
55828;DHT22;41758;51.992;5.890;2023-05-10T02:34:50;18.30;74.70
55828;DHT22;41758;51.992;5.890;2023-05-10T02:37:19;18.20;74.70
55828;DHT22;41758;51.992;5.890;2023-05-10T02:39:54;18.20;74.70
55828;DHT22;41758;51.992;5.890;2023-05-10T02:42:25;18.20;74.70
55828;DHT22;41758;51.992;5.890;2023-05-10T02:44:54;18.30;74.80
55828;DHT22;41758;51.992;5.890;2023-05-10T02:47:20;18.20;74.60
55828;DHT22;41758;51.992;5.890;2023-05-10T02:49:47;18.20;74.70
55828;DHT22;41758;51.992;5.890;2023-05-10T02:52:18;18.20;74.70
55828;DHT22;41758;51.992;5.890;2023-05-10T02:54:46;18.20;74.70
55828;DHT22;41758;51.992;5.890;2023-05-10T02:57:16;18.20;74.70
55828;DHT22;41758;51.992;5.890;2023-05-10T02:59:45;18.30;74.70
55828;DHT22;41758;51.992;5.890;2023-05-10T03:02:12;18.20;74.60
55828;DHT22;41758;51.992;5.890;2023-05-10T03:04:38;18.20;74.60
55828;DHT22;41758;51.992;5.890;2023-05-10T03:07:04;18.20;74.60
55828;DHT22;41758;51.992;5.890;2023-05-10T03:09:31;18.20;74.70
55828;DHT22;41758;51.992;5.890;2023-05-10T03:12:01;18.20;74.70
55828;DHT22;41758;51.992;5.890;2023-05-10T03:19:58;18.20;74.50
55828;DHT22;41758;51.992;5.890;2023-05-10T03:22:38;18.10;74.50
55828;DHT22;41758;51.992;5.890;2023-05-10T03:25:08;18.10;74.60
55828;DHT22;41758;51.992;5.890;2023-05-10T03:27:39;18.10;74.60
55828;DHT22;41758;51.992;5.890;2023-05-10T03:30:07;18.20;74.60
55828;DHT22;41758;51.992;5.890;2023-05-10T03:32:34;18.10;74.60
55828;DHT22;41758;51.992;5.890;2023-05-10T03:35:01;18.10;74.60
55828;DHT22;41758;51.992;5.890;2023-05-10T03:37:27;18.10;74.60
55828;DHT22;41758;51.992;5.890;2023-05-10T03:39:53;18.10;74.60
55828;DHT22;41758;51.992;5.890;2023-05-10T03:42:18;18.20;74.50
55828;DHT22;41758;51.992;5.890;2023-05-10T03:44:44;18.10;74.30
55828;DHT22;41758;51.992;5.890;2023-05-10T03:47:10;18.10;74.40
55828;DHT22;41758;51.992;5.890;2023-05-10T03:49:36;18.10;74.30
55828;DHT22;41758;51.992;5.890;2023-05-10T03:52:02;18.00;74.10
55828;DHT22;41758;51.992;5.890;2023-05-10T03:54:28;18.00;74.10
55828;DHT22;41758;51.992;5.890;2023-05-10T03:56:53;17.90;74.00
55828;DHT22;41758;51.992;5.890;2023-05-10T03:59:20;17.90;74.00
55828;DHT22;41758;51.992;5.890;2023-05-10T04:01:46;17.80;74.10
55828;DHT22;41758;51.992;5.890;2023-05-10T04:04:12;17.80;74.20
55828;DHT22;41758;51.992;5.890;2023-05-10T04:06:38;17.80;74.20
55828;DHT22;41758;51.992;5.890;2023-05-10T04:09:03;17.70;74.10
55828;DHT22;41758;51.992;5.890;2023-05-10T04:11:30;17.70;74.30
55828;DHT22;41758;51.992;5.890;2023-05-10T04:13:55;17.70;74.40
55828;DHT22;41758;51.992;5.890;2023-05-10T04:16:21;17.70;74.40
55828;DHT22;41758;51.992;5.890;2023-05-10T04:18:46;17.70;74.30
55828;DHT22;41758;51.992;5.890;2023-05-10T04:21:13;17.70;74.40
55828;DHT22;41758;51.992;5.890;2023-05-10T04:23:40;17.70;74.30
55828;DHT22;41758;51.992;5.890;2023-05-10T04:26:06;17.70;74.40
55828;DHT22;41758;51.992;5.890;2023-05-10T04:28:32;17.60;74.30
55828;DHT22;41758;51.992;5.890;2023-05-10T04:31:04;17.60;74.40
55828;DHT22;41758;51.992;5.890;2023-05-10T04:33:30;17.60;74.40
55828;DHT22;41758;51.992;5.890;2023-05-10T04:35:56;17.60;74.50
55828;DHT22;41758;51.992;5.890;2023-05-10T04:38:22;17.70;74.40
55828;DHT22;41758;51.992;5.890;2023-05-10T04:40:47;17.60;74.40
55828;DHT22;41758;51.992;5.890;2023-05-10T04:43:13;17.60;74.40
55828;DHT22;41758;51.992;5.890;2023-05-10T04:45:39;17.60;74.40
55828;DHT22;41758;51.992;5.890;2023-05-10T04:48:05;17.70;74.50
55828;DHT22;41758;51.992;5.890;2023-05-10T04:50:31;17.70;74.50
55828;DHT22;41758;51.992;5.890;2023-05-10T04:52:57;17.70;74.50
55828;DHT22;41758;51.992;5.890;2023-05-10T04:55:23;17.70;74.50
55828;DHT22;41758;51.992;5.890;2023-05-10T04:57:49;17.70;74.30
55828;DHT22;41758;51.992;5.890;2023-05-10T05:00:15;17.60;74.10
55828;DHT22;41758;51.992;5.890;2023-05-10T05:02:44;17.60;74.20
55828;DHT22;41758;51.992;5.890;2023-05-10T05:05:13;17.60;74.40
55828;DHT22;41758;51.992;5.890;2023-05-10T05:07:39;17.60;74.40
55828;DHT22;41758;51.992;5.890;2023-05-10T05:10:08;17.60;74.60
55828;DHT22;41758;51.992;5.890;2023-05-10T05:12:34;17.60;74.60
55828;DHT22;41758;51.992;5.890;2023-05-10T05:15:01;17.60;74.70
55828;DHT22;41758;51.992;5.890;2023-05-10T05:17:26;17.70;74.70
55828;DHT22;41758;51.992;5.890;2023-05-10T05:19:52;17.70;74.80
55828;DHT22;41758;51.992;5.890;2023-05-10T05:22:18;17.80;74.70
55828;DHT22;41758;51.992;5.890;2023-05-10T05:24:56;17.80;74.60
55828;DHT22;41758;51.992;5.890;2023-05-10T05:27:22;17.80;74.60
55828;DHT22;41758;51.992;5.890;2023-05-10T05:29:53;17.80;74.50
55828;DHT22;41758;51.992;5.890;2023-05-10T05:32:19;17.80;74.50
55828;DHT22;41758;51.992;5.890;2023-05-10T05:34:45;17.80;74.50
55828;DHT22;41758;51.992;5.890;2023-05-10T05:37:18;17.80;74.40
55828;DHT22;41758;51.992;5.890;2023-05-10T05:39:44;17.80;74.50
55828;DHT22;41758;51.992;5.890;2023-05-10T05:42:11;17.80;74.50
55828;DHT22;41758;51.992;5.890;2023-05-10T05:44:37;17.90;74.50
55828;DHT22;41758;51.992;5.890;2023-05-10T05:47:03;17.90;74.50
55828;DHT22;41758;51.992;5.890;2023-05-10T05:49:28;17.90;74.60
55828;DHT22;41758;51.992;5.890;2023-05-10T05:51:54;17.90;74.60
55828;DHT22;41758;51.992;5.890;2023-05-10T05:54:23;17.90;74.60
55828;DHT22;41758;51.992;5.890;2023-05-10T05:56:49;18.00;74.70
55828;DHT22;41758;51.992;5.890;2023-05-10T05:59:14;18.00;74.60
55828;DHT22;41758;51.992;5.890;2023-05-10T06:01:40;18.00;74.60
55828;DHT22;41758;51.992;5.890;2023-05-10T06:04:06;18.00;74.50
55828;DHT22;41758;51.992;5.890;2023-05-10T06:06:31;18.00;74.40
55828;DHT22;41758;51.992;5.890;2023-05-10T06:08:57;18.00;74.50
55828;DHT22;41758;51.992;5.890;2023-05-10T06:11:23;18.00;74.50
55828;DHT22;41758;51.992;5.890;2023-05-10T06:13:49;18.00;74.50
55828;DHT22;41758;51.992;5.890;2023-05-10T06:16:14;18.00;74.50
55828;DHT22;41758;51.992;5.890;2023-05-10T06:18:40;18.10;74.60
55828;DHT22;41758;51.992;5.890;2023-05-10T06:21:06;18.00;74.60
55828;DHT22;41758;51.992;5.890;2023-05-10T06:23:32;18.10;74.60
55828;DHT22;41758;51.992;5.890;2023-05-10T06:25:58;18.10;74.40
55828;DHT22;41758;51.992;5.890;2023-05-10T06:28:23;18.00;74.40
55828;DHT22;41758;51.992;5.890;2023-05-10T06:30:49;18.00;74.50
55828;DHT22;41758;51.992;5.890;2023-05-10T06:33:15;18.00;74.30
55828;DHT22;41758;51.992;5.890;2023-05-10T06:35:41;18.00;74.30
55828;DHT22;41758;51.992;5.890;2023-05-10T06:38:07;18.00;74.40
55828;DHT22;41758;51.992;5.890;2023-05-10T06:40:32;18.00;74.40
55828;DHT22;41758;51.992;5.890;2023-05-10T06:42:58;17.90;74.50
55828;DHT22;41758;51.992;5.890;2023-05-10T06:45:24;17.90;74.30
55828;DHT22;41758;51.992;5.890;2023-05-10T06:47:49;17.90;74.30
55828;DHT22;41758;51.992;5.890;2023-05-10T06:50:15;17.90;74.40
55828;DHT22;41758;51.992;5.890;2023-05-10T06:52:41;17.90;74.50
55828;DHT22;41758;51.992;5.890;2023-05-10T06:55:07;17.90;74.60
55828;DHT22;41758;51.992;5.890;2023-05-10T06:57:34;17.90;74.70
55828;DHT22;41758;51.992;5.890;2023-05-10T07:00:00;18.00;74.70
55828;DHT22;41758;51.992;5.890;2023-05-10T07:02:26;18.00;74.70
55828;DHT22;41758;51.992;5.890;2023-05-10T07:04:52;18.00;74.70
55828;DHT22;41758;51.992;5.890;2023-05-10T07:07:18;18.00;74.50
55828;DHT22;41758;51.992;5.890;2023-05-10T07:09:44;18.10;74.60
55828;DHT22;41758;51.992;5.890;2023-05-10T07:12:10;18.10;74.60
55828;DHT22;41758;51.992;5.890;2023-05-10T07:14:36;18.10;74.70
55828;DHT22;41758;51.992;5.890;2023-05-10T07:17:01;18.10;74.60
55828;DHT22;41758;51.992;5.890;2023-05-10T07:19:27;18.10;74.60
55828;DHT22;41758;51.992;5.890;2023-05-10T07:21:54;18.10;74.70
55828;DHT22;41758;51.992;5.890;2023-05-10T07:24:20;18.10;74.80
55828;DHT22;41758;51.992;5.890;2023-05-10T07:26:46;18.10;74.70
55828;DHT22;41758;51.992;5.890;2023-05-10T07:29:11;18.20;74.60
55828;DHT22;41758;51.992;5.890;2023-05-10T07:31:37;18.10;74.60
55828;DHT22;41758;51.992;5.890;2023-05-10T07:34:03;18.20;74.70
55828;DHT22;41758;51.992;5.890;2023-05-10T07:36:28;18.20;74.60
55828;DHT22;41758;51.992;5.890;2023-05-10T07:38:54;18.20;74.70
55828;DHT22;41758;51.992;5.890;2023-05-10T07:41:20;18.20;74.90
55828;DHT22;41758;51.992;5.890;2023-05-10T07:43:46;18.20;75.00
55828;DHT22;41758;51.992;5.890;2023-05-10T07:46:12;18.30;75.00
55828;DHT22;41758;51.992;5.890;2023-05-10T07:48:37;18.30;74.90
55828;DHT22;41758;51.992;5.890;2023-05-10T07:51:03;18.30;74.90
55828;DHT22;41758;51.992;5.890;2023-05-10T07:53:29;18.30;74.90
55828;DHT22;41758;51.992;5.890;2023-05-10T07:55:57;18.30;75.00
55828;DHT22;41758;51.992;5.890;2023-05-10T07:58:26;18.30;75.10
55828;DHT22;41758;51.992;5.890;2023-05-10T08:00:52;18.40;75.00
55828;DHT22;41758;51.992;5.890;2023-05-10T08:03:18;18.40;75.10
55828;DHT22;41758;51.992;5.890;2023-05-10T08:05:43;18.50;75.00
55828;DHT22;41758;51.992;5.890;2023-05-10T08:08:09;18.50;75.00
55828;DHT22;41758;51.992;5.890;2023-05-10T08:10:35;18.60;75.00
55828;DHT22;41758;51.992;5.890;2023-05-10T08:13:00;18.60;75.00
55828;DHT22;41758;51.992;5.890;2023-05-10T08:15:26;18.60;75.00
55828;DHT22;41758;51.992;5.890;2023-05-10T08:17:52;18.60;75.00
55828;DHT22;41758;51.992;5.890;2023-05-10T08:20:18;18.60;74.90
55828;DHT22;41758;51.992;5.890;2023-05-10T08:22:45;18.70;74.90
55828;DHT22;41758;51.992;5.890;2023-05-10T08:25:11;18.70;74.80
55828;DHT22;41758;51.992;5.890;2023-05-10T08:27:37;18.70;74.80
55828;DHT22;41758;51.992;5.890;2023-05-10T08:30:02;18.70;74.90
55828;DHT22;41758;51.992;5.890;2023-05-10T08:32:28;18.70;74.80
55828;DHT22;41758;51.992;5.890;2023-05-10T08:34:54;18.70;74.60
55828;DHT22;41758;51.992;5.890;2023-05-10T08:37:23;18.60;74.70
55828;DHT22;41758;51.992;5.890;2023-05-10T08:39:49;18.60;74.70
55828;DHT22;41758;51.992;5.890;2023-05-10T08:42:19;18.60;74.70
55828;DHT22;41758;51.992;5.890;2023-05-10T08:44:48;18.60;74.30
55828;DHT22;41758;51.992;5.890;2023-05-10T08:47:16;18.50;74.10
55828;DHT22;41758;51.992;5.890;2023-05-10T08:49:44;18.50;74.30
55828;DHT22;41758;51.992;5.890;2023-05-10T08:52:15;18.40;74.50
55828;DHT22;41758;51.992;5.890;2023-05-10T08:54:42;18.50;74.70
55828;DHT22;41758;51.992;5.890;2023-05-10T08:57:08;18.50;74.80
55828;DHT22;41758;51.992;5.890;2023-05-10T08:59:33;18.50;74.90
55828;DHT22;41758;51.992;5.890;2023-05-10T09:01:59;18.50;74.80
55828;DHT22;41758;51.992;5.890;2023-05-10T09:04:26;18.50;74.90
55828;DHT22;41758;51.992;5.890;2023-05-10T09:06:52;18.50;74.60
55828;DHT22;41758;51.992;5.890;2023-05-10T09:09:18;18.50;74.70
55828;DHT22;41758;51.992;5.890;2023-05-10T09:11:45;18.50;74.70
55828;DHT22;41758;51.992;5.890;2023-05-10T09:14:12;18.50;74.50
55828;DHT22;41758;51.992;5.890;2023-05-10T09:16:39;18.50;74.60
55828;DHT22;41758;51.992;5.890;2023-05-10T09:19:05;18.50;74.80
55828;DHT22;41758;51.992;5.890;2023-05-10T09:21:32;18.50;74.90
55828;DHT22;41758;51.992;5.890;2023-05-10T09:24:03;18.60;75.10
55828;DHT22;41758;51.992;5.890;2023-05-10T09:26:29;18.70;75.20
55828;DHT22;41758;51.992;5.890;2023-05-10T09:28:59;18.70;75.20
55828;DHT22;41758;51.992;5.890;2023-05-10T09:31:49;18.80;75.10
55828;DHT22;41758;51.992;5.890;2023-05-10T09:34:31;18.80;74.70
55828;DHT22;41758;51.992;5.890;2023-05-10T09:36:59;18.80;74.70
55828;DHT22;41758;51.992;5.890;2023-05-10T09:39:37;18.80;74.60
55828;DHT22;41758;51.992;5.890;2023-05-10T09:42:07;18.80;74.60
55828;DHT22;41758;51.992;5.890;2023-05-10T09:44:34;18.80;74.70
55828;DHT22;41758;51.992;5.890;2023-05-10T09:47:01;18.70;74.70
55828;DHT22;41758;51.992;5.890;2023-05-10T09:49:27;18.80;74.50
55828;DHT22;41758;51.992;5.890;2023-05-10T09:52:05;18.80;74.20
55828;DHT22;41758;51.992;5.890;2023-05-10T09:54:31;18.70;74.10
55828;DHT22;41758;51.992;5.890;2023-05-10T09:56:57;18.70;74.10
55828;DHT22;41758;51.992;5.890;2023-05-10T09:59:26;18.60;74.00
55828;DHT22;41758;51.992;5.890;2023-05-10T10:01:56;18.60;74.10
55828;DHT22;41758;51.992;5.890;2023-05-10T10:04:22;18.60;74.10
55828;DHT22;41758;51.992;5.890;2023-05-10T10:07:02;18.60;74.30
55828;DHT22;41758;51.992;5.890;2023-05-10T10:09:29;18.70;74.50
55828;DHT22;41758;51.992;5.890;2023-05-10T10:11:54;18.70;74.50
55828;DHT22;41758;51.992;5.890;2023-05-10T10:14:22;18.70;74.30
55828;DHT22;41758;51.992;5.890;2023-05-10T10:16:49;18.70;74.20
55828;DHT22;41758;51.992;5.890;2023-05-10T10:19:15;18.60;74.10
55828;DHT22;41758;51.992;5.890;2023-05-10T10:21:41;18.60;74.10
55828;DHT22;41758;51.992;5.890;2023-05-10T10:24:07;18.60;74.20
55828;DHT22;41758;51.992;5.890;2023-05-10T10:26:35;18.60;74.40
55828;DHT22;41758;51.992;5.890;2023-05-10T10:35:06;18.70;74.70
55828;DHT22;41758;51.992;5.890;2023-05-10T10:37:47;18.70;74.60
55828;DHT22;41758;51.992;5.890;2023-05-10T10:40:26;18.80;74.50
55828;DHT22;41758;51.992;5.890;2023-05-10T10:42:52;18.80;74.80
55828;DHT22;41758;51.992;5.890;2023-05-10T10:45:19;18.80;75.00
55828;DHT22;41758;51.992;5.890;2023-05-10T10:47:45;18.90;75.20
55828;DHT22;41758;51.992;5.890;2023-05-10T10:50:11;19.00;75.20
55828;DHT22;41758;51.992;5.890;2023-05-10T10:52:45;19.10;75.10
55828;DHT22;41758;51.992;5.890;2023-05-10T10:55:20;19.20;75.00
55828;DHT22;41758;51.992;5.890;2023-05-10T10:57:54;19.30;74.80
55828;DHT22;41758;51.992;5.890;2023-05-10T11:00:33;19.20;74.60
55828;DHT22;41758;51.992;5.890;2023-05-10T11:03:14;19.30;74.60
55828;DHT22;41758;51.992;5.890;2023-05-10T11:05:48;19.30;74.50
55828;DHT22;41758;51.992;5.890;2023-05-10T11:08:26;19.30;74.40
55828;DHT22;41758;51.992;5.890;2023-05-10T11:11:05;19.30;74.10
55828;DHT22;41758;51.992;5.890;2023-05-10T11:13:46;19.30;74.00
55828;DHT22;41758;51.992;5.890;2023-05-10T11:16:25;19.20;74.20
55828;DHT22;41758;51.992;5.890;2023-05-10T11:19:05;19.30;74.50
55828;DHT22;41758;51.992;5.890;2023-05-10T11:21:33;19.30;74.40
55828;DHT22;41758;51.992;5.890;2023-05-10T11:23:59;19.30;74.60
55828;DHT22;41758;51.992;5.890;2023-05-10T11:26:30;19.40;74.50
55828;DHT22;41758;51.992;5.890;2023-05-10T11:28:56;19.30;74.40
55828;DHT22;41758;51.992;5.890;2023-05-10T11:31:23;19.40;74.30
55828;DHT22;41758;51.992;5.890;2023-05-10T11:33:56;19.40;74.00
55828;DHT22;41758;51.992;5.890;2023-05-10T11:36:24;19.40;74.10
55828;DHT22;41758;51.992;5.890;2023-05-10T11:38:51;19.40;74.40
55828;DHT22;41758;51.992;5.890;2023-05-10T11:41:18;19.40;74.60
55828;DHT22;41758;51.992;5.890;2023-05-10T11:43:46;19.60;74.90
55828;DHT22;41758;51.992;5.890;2023-05-10T11:46:13;19.60;75.10
55828;DHT22;41758;51.992;5.890;2023-05-10T11:48:40;19.70;75.00
55828;DHT22;41758;51.992;5.890;2023-05-10T11:51:09;19.80;75.10
55828;DHT22;41758;51.992;5.890;2023-05-10T11:53:36;19.90;75.30
55828;DHT22;41758;51.992;5.890;2023-05-10T11:56:09;19.90;75.00
55828;DHT22;41758;51.992;5.890;2023-05-10T11:58:36;20.00;74.50
55828;DHT22;41758;51.992;5.890;2023-05-10T12:01:04;20.00;74.30
55828;DHT22;41758;51.992;5.890;2023-05-10T12:03:30;20.00;74.50
55828;DHT22;41758;51.992;5.890;2023-05-10T12:05:57;20.00;74.50
55828;DHT22;41758;51.992;5.890;2023-05-10T12:08:24;20.00;74.40
55828;DHT22;41758;51.992;5.890;2023-05-10T12:10:51;20.00;74.20
55828;DHT22;41758;51.992;5.890;2023-05-10T12:13:18;20.00;74.40
55828;DHT22;41758;51.992;5.890;2023-05-10T12:15:44;20.10;74.50
55828;DHT22;41758;51.992;5.890;2023-05-10T12:18:10;20.10;74.60
55828;DHT22;41758;51.992;5.890;2023-05-10T12:20:37;20.20;74.70
55828;DHT22;41758;51.992;5.890;2023-05-10T12:23:03;20.30;75.00
55828;DHT22;41758;51.992;5.890;2023-05-10T12:25:34;20.40;75.10
55828;DHT22;41758;51.992;5.890;2023-05-10T12:28:03;20.50;75.20
55828;DHT22;41758;51.992;5.890;2023-05-10T12:30:30;20.60;75.10
55828;DHT22;41758;51.992;5.890;2023-05-10T12:33:07;20.60;74.90
55828;DHT22;41758;51.992;5.890;2023-05-10T12:35:33;20.70;74.90
55828;DHT22;41758;51.992;5.890;2023-05-10T12:37:59;20.80;74.90
55828;DHT22;41758;51.992;5.890;2023-05-10T12:40:25;20.80;74.80
55828;DHT22;41758;51.992;5.890;2023-05-10T12:42:51;20.80;74.80
55828;DHT22;41758;51.992;5.890;2023-05-10T12:45:18;20.90;74.80
55828;DHT22;41758;51.992;5.890;2023-05-10T12:47:43;20.90;74.30
55828;DHT22;41758;51.992;5.890;2023-05-10T12:50:09;20.90;74.40
55828;DHT22;41758;51.992;5.890;2023-05-10T12:52:35;20.90;74.50
55828;DHT22;41758;51.992;5.890;2023-05-10T12:55:01;21.00;74.60
55828;DHT22;41758;51.992;5.890;2023-05-10T12:57:28;21.00;74.50
55828;DHT22;41758;51.992;5.890;2023-05-10T12:59:54;21.10;74.60
55828;DHT22;41758;51.992;5.890;2023-05-10T13:02:20;21.10;74.50
55828;DHT22;41758;51.992;5.890;2023-05-10T13:04:47;21.10;74.50
55828;DHT22;41758;51.992;5.890;2023-05-10T13:07:13;21.10;74.50
55828;DHT22;41758;51.992;5.890;2023-05-10T13:09:39;21.20;74.70
55828;DHT22;41758;51.992;5.890;2023-05-10T13:12:05;21.30;74.70
55828;DHT22;41758;51.992;5.890;2023-05-10T13:14:31;21.30;74.70
55828;DHT22;41758;51.992;5.890;2023-05-10T13:16:57;21.30;74.60
55828;DHT22;41758;51.992;5.890;2023-05-10T13:19:23;21.30;74.50
55828;DHT22;41758;51.992;5.890;2023-05-10T13:21:48;21.30;74.40
55828;DHT22;41758;51.992;5.890;2023-05-10T13:24:14;21.40;74.40
55828;DHT22;41758;51.992;5.890;2023-05-10T13:26:40;21.40;74.40
55828;DHT22;41758;51.992;5.890;2023-05-10T13:29:07;21.40;74.30
55828;DHT22;41758;51.992;5.890;2023-05-10T13:31:33;21.40;74.20
55828;DHT22;41758;51.992;5.890;2023-05-10T13:33:58;21.40;74.00
55828;DHT22;41758;51.992;5.890;2023-05-10T13:36:24;21.40;73.90
55828;DHT22;41758;51.992;5.890;2023-05-10T13:38:50;21.40;74.10
55828;DHT22;41758;51.992;5.890;2023-05-10T13:41:16;21.40;74.20
55828;DHT22;41758;51.992;5.890;2023-05-10T13:43:41;21.40;74.30
55828;DHT22;41758;51.992;5.890;2023-05-10T13:46:07;21.40;74.30
55828;DHT22;41758;51.992;5.890;2023-05-10T13:48:33;21.40;74.30
55828;DHT22;41758;51.992;5.890;2023-05-10T13:50:58;21.40;74.20
55828;DHT22;41758;51.992;5.890;2023-05-10T13:53:24;21.40;74.00
55828;DHT22;41758;51.992;5.890;2023-05-10T13:55:50;21.30;73.60
55828;DHT22;41758;51.992;5.890;2023-05-10T13:58:15;21.30;73.20
55828;DHT22;41758;51.992;5.890;2023-05-10T14:00:41;21.10;73.20
55828;DHT22;41758;51.992;5.890;2023-05-10T14:03:07;21.00;73.10
55828;DHT22;41758;51.992;5.890;2023-05-10T14:05:34;20.90;72.90
55828;DHT22;41758;51.992;5.890;2023-05-10T14:08:00;20.80;73.10
55828;DHT22;41758;51.992;5.890;2023-05-10T14:10:25;20.70;73.20
55828;DHT22;41758;51.992;5.890;2023-05-10T14:12:51;20.60;73.20
55828;DHT22;41758;51.992;5.890;2023-05-10T14:15:17;20.40;73.10
55828;DHT22;41758;51.992;5.890;2023-05-10T14:17:43;20.40;73.30
55828;DHT22;41758;51.992;5.890;2023-05-10T14:20:09;20.30;73.50
55828;DHT22;41758;51.992;5.890;2023-05-10T14:22:35;20.30;73.90
55828;DHT22;41758;51.992;5.890;2023-05-10T14:25:01;20.30;74.00
55828;DHT22;41758;51.992;5.890;2023-05-10T14:27:27;20.30;74.30
55828;DHT22;41758;51.992;5.890;2023-05-10T14:29:52;20.40;74.60
55828;DHT22;41758;51.992;5.890;2023-05-10T14:32:19;20.40;74.60
55828;DHT22;41758;51.992;5.890;2023-05-10T14:34:45;20.40;74.50
55828;DHT22;41758;51.992;5.890;2023-05-10T14:37:11;20.40;74.30
55828;DHT22;41758;51.992;5.890;2023-05-10T14:39:37;20.40;74.20
55828;DHT22;41758;51.992;5.890;2023-05-10T14:42:03;20.40;74.10
55828;DHT22;41758;51.992;5.890;2023-05-10T14:44:29;20.40;74.20
55828;DHT22;41758;51.992;5.890;2023-05-10T14:46:55;20.30;74.10
55828;DHT22;41758;51.992;5.890;2023-05-10T14:49:22;20.30;74.00
55828;DHT22;41758;51.992;5.890;2023-05-10T14:51:50;20.30;74.10
55828;DHT22;41758;51.992;5.890;2023-05-10T14:54:15;20.30;74.00
55828;DHT22;41758;51.992;5.890;2023-05-10T14:56:41;20.20;73.90
55828;DHT22;41758;51.992;5.890;2023-05-10T14:59:07;20.10;73.90
55828;DHT22;41758;51.992;5.890;2023-05-10T15:01:33;20.10;73.80
55828;DHT22;41758;51.992;5.890;2023-05-10T15:04:03;20.00;73.80
55828;DHT22;41758;51.992;5.890;2023-05-10T15:06:32;20.00;74.10
55828;DHT22;41758;51.992;5.890;2023-05-10T15:08:59;20.10;74.40
55828;DHT22;41758;51.992;5.890;2023-05-10T15:11:25;20.10;74.40
55828;DHT22;41758;51.992;5.890;2023-05-10T15:13:51;20.00;74.50
55828;DHT22;41758;51.992;5.890;2023-05-10T15:16:17;20.10;74.60
55828;DHT22;41758;51.992;5.890;2023-05-10T15:18:42;20.10;74.70
55828;DHT22;41758;51.992;5.890;2023-05-10T15:21:08;20.20;74.60
55828;DHT22;41758;51.992;5.890;2023-05-10T15:23:34;20.20;74.70
55828;DHT22;41758;51.992;5.890;2023-05-10T15:26:00;20.30;74.70
55828;DHT22;41758;51.992;5.890;2023-05-10T15:28:26;20.30;74.80
55828;DHT22;41758;51.992;5.890;2023-05-10T15:30:51;20.30;74.80
55828;DHT22;41758;51.992;5.890;2023-05-10T15:33:17;20.30;74.80
55828;DHT22;41758;51.992;5.890;2023-05-10T15:35:43;20.30;74.50
55828;DHT22;41758;51.992;5.890;2023-05-10T15:38:09;20.30;74.40
55828;DHT22;41758;51.992;5.890;2023-05-10T15:40:35;20.40;74.50
55828;DHT22;41758;51.992;5.890;2023-05-10T15:43:01;20.30;74.50
55828;DHT22;41758;51.992;5.890;2023-05-10T15:45:27;20.30;74.30
55828;DHT22;41758;51.992;5.890;2023-05-10T15:47:52;20.30;74.20